sensor_id;sensor_type;location;lat;lon;timestamp;temperature;humidity
7686;DHT22;3885;51.474;-2.576;2022-11-03T00:00:33;12.40;99.90
7686;DHT22;3885;51.474;-2.576;2022-11-03T00:03:00;12.40;99.90
7686;DHT22;3885;51.474;-2.576;2022-11-03T00:05:28;12.40;99.90
7686;DHT22;3885;51.474;-2.576;2022-11-03T00:08:13;12.50;99.90
7686;DHT22;3885;51.474;-2.576;2022-11-03T00:10:40;12.50;99.90
7686;DHT22;3885;51.474;-2.576;2022-11-03T00:13:06;12.50;99.90
7686;DHT22;3885;51.474;-2.576;2022-11-03T00:15:33;12.50;99.90
7686;DHT22;3885;51.474;-2.576;2022-11-03T00:18:00;12.50;99.90
7686;DHT22;3885;51.474;-2.576;2022-11-03T00:20:28;12.50;99.90
7686;DHT22;3885;51.474;-2.576;2022-11-03T00:22:55;12.50;99.90
7686;DHT22;3885;51.474;-2.576;2022-11-03T00:25:22;12.50;99.90
7686;DHT22;3885;51.474;-2.576;2022-11-03T00:27:53;12.50;99.90
7686;DHT22;3885;51.474;-2.576;2022-11-03T00:30:21;12.50;99.90
7686;DHT22;3885;51.474;-2.576;2022-11-03T00:32:48;12.50;99.90
7686;DHT22;3885;51.474;-2.576;2022-11-03T00:35:15;12.50;99.90
7686;DHT22;3885;51.474;-2.576;2022-11-03T00:37:43;12.50;99.90
7686;DHT22;3885;51.474;-2.576;2022-11-03T00:40:11;12.50;99.90
7686;DHT22;3885;51.474;-2.576;2022-11-03T00:42:38;12.50;99.90
7686;DHT22;3885;51.474;-2.576;2022-11-03T00:45:06;12.50;99.90
7686;DHT22;3885;51.474;-2.576;2022-11-03T00:47:33;12.40;99.90
7686;DHT22;3885;51.474;-2.576;2022-11-03T00:50:19;12.50;99.90
7686;DHT22;3885;51.474;-2.576;2022-11-03T00:52:48;12.50;99.90
7686;DHT22;3885;51.474;-2.576;2022-11-03T00:55:15;12.40;99.90
7686;DHT22;3885;51.474;-2.576;2022-11-03T00:57:42;12.40;99.90
7686;DHT22;3885;51.474;-2.576;2022-11-03T01:00:10;12.30;99.90
7686;DHT22;3885;51.474;-2.576;2022-11-03T01:02:37;12.30;99.90
7686;DHT22;3885;51.474;-2.576;2022-11-03T01:05:05;12.30;99.90
7686;DHT22;3885;51.474;-2.576;2022-11-03T01:07:52;12.20;99.90
7686;DHT22;3885;51.474;-2.576;2022-11-03T01:10:19;12.20;99.90
7686;DHT22;3885;51.474;-2.576;2022-11-03T01:12:46;12.20;99.90
7686;DHT22;3885;51.474;-2.576;2022-11-03T01:15:13;12.20;99.90
7686;DHT22;3885;51.474;-2.576;2022-11-03T01:17:40;12.10;99.90
7686;DHT22;3885;51.474;-2.576;2022-11-03T01:20:07;12.10;99.90
7686;DHT22;3885;51.474;-2.576;2022-11-03T01:22:34;12.10;99.90
7686;DHT22;3885;51.474;-2.576;2022-11-03T01:25:03;12.10;99.90
7686;DHT22;3885;51.474;-2.576;2022-11-03T01:27:30;12.10;99.90
7686;DHT22;3885;51.474;-2.576;2022-11-03T01:30:00;12.20;99.90
7686;DHT22;3885;51.474;-2.576;2022-11-03T01:32:28;12.20;99.90
7686;DHT22;3885;51.474;-2.576;2022-11-03T01:34:55;12.20;99.90
7686;DHT22;3885;51.474;-2.576;2022-11-03T01:37:23;12.20;99.90
7686;DHT22;3885;51.474;-2.576;2022-11-03T01:39:50;12.20;99.90
7686;DHT22;3885;51.474;-2.576;2022-11-03T01:42:19;12.20;99.90
7686;DHT22;3885;51.474;-2.576;2022-11-03T01:44:47;12.20;99.90
7686;DHT22;3885;51.474;-2.576;2022-11-03T01:47:20;12.10;99.90
7686;DHT22;3885;51.474;-2.576;2022-11-03T01:49:49;12.10;99.90
7686;DHT22;3885;51.474;-2.576;2022-11-03T01:52:21;11.80;99.90
7686;DHT22;3885;51.474;-2.576;2022-11-03T01:54:55;11.90;99.90
7686;DHT22;3885;51.474;-2.576;2022-11-03T01:57:29;11.80;99.90
7686;DHT22;3885;51.474;-2.576;2022-11-03T01:59:58;11.80;99.90
7686;DHT22;3885;51.474;-2.576;2022-11-03T02:02:27;11.70;99.90
7686;DHT22;3885;51.474;-2.576;2022-11-03T02:04:55;11.70;99.90
7686;DHT22;3885;51.474;-2.576;2022-11-03T02:07:27;11.60;99.90
7686;DHT22;3885;51.474;-2.576;2022-11-03T02:09:55;11.60;99.90
7686;DHT22;3885;51.474;-2.576;2022-11-03T02:12:22;11.60;99.90
7686;DHT22;3885;51.474;-2.576;2022-11-03T02:14:55;11.60;99.90
7686;DHT22;3885;51.474;-2.576;2022-11-03T02:17:25;11.60;99.90
7686;DHT22;3885;51.474;-2.576;2022-11-03T02:19:57;11.60;99.90
7686;DHT22;3885;51.474;-2.576;2022-11-03T02:25:38;11.50;99.90
7686;DHT22;3885;51.474;-2.576;2022-11-03T02:28:06;11.40;99.90
7686;DHT22;3885;51.474;-2.576;2022-11-03T02:30:36;11.50;99.90
7686;DHT22;3885;51.474;-2.576;2022-11-03T02:33:12;11.50;99.90
7686;DHT22;3885;51.474;-2.576;2022-11-03T02:35:45;11.40;99.90
7686;DHT22;3885;51.474;-2.576;2022-11-03T02:38:16;11.30;99.90
7686;DHT22;3885;51.474;-2.576;2022-11-03T02:40:49;11.30;99.90
7686;DHT22;3885;51.474;-2.576;2022-11-03T02:43:18;11.30;99.90
7686;DHT22;3885;51.474;-2.576;2022-11-03T02:45:48;11.30;99.90
7686;DHT22;3885;51.474;-2.576;2022-11-03T02:48:17;11.40;99.90
7686;DHT22;3885;51.474;-2.576;2022-11-03T02:50:46;11.20;99.90
7686;DHT22;3885;51.474;-2.576;2022-11-03T02:53:14;11.30;99.90
7686;DHT22;3885;51.474;-2.576;2022-11-03T02:55:50;11.30;99.90
7686;DHT22;3885;51.474;-2.576;2022-11-03T02:58:22;11.30;99.90
7686;DHT22;3885;51.474;-2.576;2022-11-03T03:00:54;11.20;99.90
7686;DHT22;3885;51.474;-2.576;2022-11-03T03:03:25;11.20;99.90
7686;DHT22;3885;51.474;-2.576;2022-11-03T03:05:56;11.20;99.90
7686;DHT22;3885;51.474;-2.576;2022-11-03T03:08:26;11.20;99.90
7686;DHT22;3885;51.474;-2.576;2022-11-03T03:10:56;11.20;99.90
7686;DHT22;3885;51.474;-2.576;2022-11-03T03:13:26;11.20;99.90
7686;DHT22;3885;51.474;-2.576;2022-11-03T03:16:02;11.10;99.90
7686;DHT22;3885;51.474;-2.576;2022-11-03T03:18:40;11.10;99.90
7686;DHT22;3885;51.474;-2.576;2022-11-03T03:21:12;11.10;99.90
7686;DHT22;3885;51.474;-2.576;2022-11-03T03:23:43;11.10;99.90
7686;DHT22;3885;51.474;-2.576;2022-11-03T03:26:19;11.10;99.90
7686;DHT22;3885;51.474;-2.576;2022-11-03T03:28:52;11.00;99.90
7686;DHT22;3885;51.474;-2.576;2022-11-03T03:31:21;11.00;99.90
7686;DHT22;3885;51.474;-2.576;2022-11-03T03:33:50;11.00;99.90
7686;DHT22;3885;51.474;-2.576;2022-11-03T03:36:19;10.90;99.90
7686;DHT22;3885;51.474;-2.576;2022-11-03T03:38:51;10.90;99.90
7686;DHT22;3885;51.474;-2.576;2022-11-03T03:41:21;10.90;99.90
7686;DHT22;3885;51.474;-2.576;2022-11-03T03:43:51;11.00;99.90
7686;DHT22;3885;51.474;-2.576;2022-11-03T03:46:21;11.00;99.90
7686;DHT22;3885;51.474;-2.576;2022-11-03T03:48:48;11.00;99.90
7686;DHT22;3885;51.474;-2.576;2022-11-03T03:51:17;11.00;99.90
7686;DHT22;3885;51.474;-2.576;2022-11-03T03:53:49;11.00;99.90
7686;DHT22;3885;51.474;-2.576;2022-11-03T03:56:17;11.00;99.90
7686;DHT22;3885;51.474;-2.576;2022-11-03T03:58:47;11.00;99.90
7686;DHT22;3885;51.474;-2.576;2022-11-03T04:01:14;11.00;99.90
7686;DHT22;3885;51.474;-2.576;2022-11-03T04:03:41;11.00;99.90
7686;DHT22;3885;51.474;-2.576;2022-11-03T04:06:08;13.00;99.90
7686;DHT22;3885;51.474;-2.576;2022-11-03T04:08:35;11.10;99.90
7686;DHT22;3885;51.474;-2.576;2022-11-03T04:11:02;11.10;99.90
7686;DHT22;3885;51.474;-2.576;2022-11-03T04:13:48;11.10;99.90
7686;DHT22;3885;51.474;-2.576;2022-11-03T04:16:32;11.00;99.90
7686;DHT22;3885;51.474;-2.576;2022-11-03T04:19:17;11.00;99.90
7686;DHT22;3885;51.474;-2.576;2022-11-03T04:22:01;11.00;99.90
7686;DHT22;3885;51.474;-2.576;2022-11-03T04:24:43;11.00;99.90
7686;DHT22;3885;51.474;-2.576;2022-11-03T04:27:29;11.00;99.90
7686;DHT22;3885;51.474;-2.576;2022-11-03T04:30:06;10.90;99.90
7686;DHT22;3885;51.474;-2.576;2022-11-03T04:32:33;10.90;99.90
7686;DHT22;3885;51.474;-2.576;2022-11-03T04:35:01;10.90;99.90
7686;DHT22;3885;51.474;-2.576;2022-11-03T04:37:28;10.90;99.90
7686;DHT22;3885;51.474;-2.576;2022-11-03T04:39:58;10.80;99.90
7686;DHT22;3885;51.474;-2.576;2022-11-03T04:42:28;10.80;99.90
7686;DHT22;3885;51.474;-2.576;2022-11-03T04:44:58;10.80;99.90
7686;DHT22;3885;51.474;-2.576;2022-11-03T04:47:29;10.80;99.90
7686;DHT22;3885;51.474;-2.576;2022-11-03T04:49:57;10.80;99.90
7686;DHT22;3885;51.474;-2.576;2022-11-03T04:52:24;10.80;99.90
7686;DHT22;3885;51.474;-2.576;2022-11-03T04:54:52;10.80;99.90
7686;DHT22;3885;51.474;-2.576;2022-11-03T04:57:19;10.70;99.90
7686;DHT22;3885;51.474;-2.576;2022-11-03T04:59:48;10.70;99.90
7686;DHT22;3885;51.474;-2.576;2022-11-03T05:02:18;10.70;99.90
7686;DHT22;3885;51.474;-2.576;2022-11-03T05:04:48;10.60;99.90
7686;DHT22;3885;51.474;-2.576;2022-11-03T05:07:22;10.60;99.90
7686;DHT22;3885;51.474;-2.576;2022-11-03T05:09:50;10.60;99.90
7686;DHT22;3885;51.474;-2.576;2022-11-03T05:12:18;10.60;99.90
7686;DHT22;3885;51.474;-2.576;2022-11-03T05:14:45;10.60;99.90
7686;DHT22;3885;51.474;-2.576;2022-11-03T05:17:21;10.60;99.90
7686;DHT22;3885;51.474;-2.576;2022-11-03T05:19:52;10.60;99.90
7686;DHT22;3885;51.474;-2.576;2022-11-03T05:22:21;10.60;99.90
7686;DHT22;3885;51.474;-2.576;2022-11-03T05:24:55;10.60;99.90
7686;DHT22;3885;51.474;-2.576;2022-11-03T05:27:23;10.60;99.90
7686;DHT22;3885;51.474;-2.576;2022-11-03T05:29:52;10.60;99.90
7686;DHT22;3885;51.474;-2.576;2022-11-03T05:32:24;10.60;99.90
7686;DHT22;3885;51.474;-2.576;2022-11-03T05:34:54;10.60;99.90
7686;DHT22;3885;51.474;-2.576;2022-11-03T05:37:26;10.60;99.90
7686;DHT22;3885;51.474;-2.576;2022-11-03T05:39:55;10.60;99.90
7686;DHT22;3885;51.474;-2.576;2022-11-03T05:42:31;10.50;99.90
7686;DHT22;3885;51.474;-2.576;2022-11-03T05:45:02;10.50;99.90
7686;DHT22;3885;51.474;-2.576;2022-11-03T05:47:33;10.50;99.90
7686;DHT22;3885;51.474;-2.576;2022-11-03T05:50:13;10.50;99.90
7686;DHT22;3885;51.474;-2.576;2022-11-03T05:52:43;10.50;99.90
7686;DHT22;3885;51.474;-2.576;2022-11-03T05:55:22;10.50;99.90
7686;DHT22;3885;51.474;-2.576;2022-11-03T05:57:50;10.50;99.90
7686;DHT22;3885;51.474;-2.576;2022-11-03T06:00:26;10.50;99.90
7686;DHT22;3885;51.474;-2.576;2022-11-03T06:02:54;10.50;99.90
7686;DHT22;3885;51.474;-2.576;2022-11-03T06:05:23;10.50;99.90
7686;DHT22;3885;51.474;-2.576;2022-11-03T06:07:53;10.50;99.90
7686;DHT22;3885;51.474;-2.576;2022-11-03T06:10:24;10.50;99.90
7686;DHT22;3885;51.474;-2.576;2022-11-03T06:12:54;10.50;99.90
7686;DHT22;3885;51.474;-2.576;2022-11-03T06:15:28;10.60;99.90
7686;DHT22;3885;51.474;-2.576;2022-11-03T06:17:55;10.50;99.90
7686;DHT22;3885;51.474;-2.576;2022-11-03T06:20:24;10.40;99.90
7686;DHT22;3885;51.474;-2.576;2022-11-03T06:22:52;10.40;99.90
7686;DHT22;3885;51.474;-2.576;2022-11-03T06:25:25;10.40;99.90
7686;DHT22;3885;51.474;-2.576;2022-11-03T06:27:54;10.40;99.90
7686;DHT22;3885;51.474;-2.576;2022-11-03T06:30:24;10.30;99.90
7686;DHT22;3885;51.474;-2.576;2022-11-03T06:32:52;10.30;99.90
7686;DHT22;3885;51.474;-2.576;2022-11-03T06:35:20;10.30;99.90
7686;DHT22;3885;51.474;-2.576;2022-11-03T06:37:48;10.30;99.90
7686;DHT22;3885;51.474;-2.576;2022-11-03T06:40:35;10.30;99.90
7686;DHT22;3885;51.474;-2.576;2022-11-03T06:43:19;10.30;99.90
7686;DHT22;3885;51.474;-2.576;2022-11-03T06:45:51;10.30;99.90
7686;DHT22;3885;51.474;-2.576;2022-11-03T06:48:26;10.30;99.90
7686;DHT22;3885;51.474;-2.576;2022-11-03T06:50:54;10.30;99.90
7686;DHT22;3885;51.474;-2.576;2022-11-03T06:53:25;10.30;99.90
7686;DHT22;3885;51.474;-2.576;2022-11-03T06:55:53;10.30;99.90
7686;DHT22;3885;51.474;-2.576;2022-11-03T06:58:27;10.30;99.90
7686;DHT22;3885;51.474;-2.576;2022-11-03T07:00:58;10.30;99.90
7686;DHT22;3885;51.474;-2.576;2022-11-03T07:03:29;10.30;99.90
7686;DHT22;3885;51.474;-2.576;2022-11-03T07:06:00;10.30;99.90
7686;DHT22;3885;51.474;-2.576;2022-11-03T07:08:29;10.40;99.90
7686;DHT22;3885;51.474;-2.576;2022-11-03T07:11:05;10.40;99.90
7686;DHT22;3885;51.474;-2.576;2022-11-03T07:13:33;10.40;99.90
7686;DHT22;3885;51.474;-2.576;2022-11-03T07:16:01;10.30;99.90
7686;DHT22;3885;51.474;-2.576;2022-11-03T07:18:31;10.30;99.90
7686;DHT22;3885;51.474;-2.576;2022-11-03T07:21:03;10.40;99.90
7686;DHT22;3885;51.474;-2.576;2022-11-03T07:23:32;10.40;99.90
7686;DHT22;3885;51.474;-2.576;2022-11-03T07:26:00;10.40;99.90
7686;DHT22;3885;51.474;-2.576;2022-11-03T07:28:32;10.30;99.90
7686;DHT22;3885;51.474;-2.576;2022-11-03T07:31:05;10.40;99.90
7686;DHT22;3885;51.474;-2.576;2022-11-03T07:33:36;10.40;99.90
7686;DHT22;3885;51.474;-2.576;2022-11-03T07:36:06;10.40;99.90
7686;DHT22;3885;51.474;-2.576;2022-11-03T07:38:35;10.40;99.90
7686;DHT22;3885;51.474;-2.576;2022-11-03T07:41:04;10.40;99.90
7686;DHT22;3885;51.474;-2.576;2022-11-03T07:43:33;10.40;99.90
7686;DHT22;3885;51.474;-2.576;2022-11-03T07:46:02;10.40;99.90
7686;DHT22;3885;51.474;-2.576;2022-11-03T07:48:35;10.50;99.90
7686;DHT22;3885;51.474;-2.576;2022-11-03T07:51:14;10.10;99.90
7686;DHT22;3885;51.474;-2.576;2022-11-03T07:53:45;10.10;99.90
7686;DHT22;3885;51.474;-2.576;2022-11-03T07:56:18;10.00;99.90
7686;DHT22;3885;51.474;-2.576;2022-11-03T07:58:46;10.00;99.90
7686;DHT22;3885;51.474;-2.576;2022-11-03T08:01:25;10.10;99.90
7686;DHT22;3885;51.474;-2.576;2022-11-03T08:03:56;10.00;99.90
7686;DHT22;3885;51.474;-2.576;2022-11-03T08:06:23;10.00;99.90
7686;DHT22;3885;51.474;-2.576;2022-11-03T08:08:51;10.00;99.90
7686;DHT22;3885;51.474;-2.576;2022-11-03T08:11:18;10.00;99.90
7686;DHT22;3885;51.474;-2.576;2022-11-03T08:13:47;10.00;99.90
7686;DHT22;3885;51.474;-2.576;2022-11-03T08:16:14;9.90;99.90
7686;DHT22;3885;51.474;-2.576;2022-11-03T08:18:41;10.00;99.90
7686;DHT22;3885;51.474;-2.576;2022-11-03T08:21:08;10.00;99.90
7686;DHT22;3885;51.474;-2.576;2022-11-03T08:23:35;10.10;99.90
7686;DHT22;3885;51.474;-2.576;2022-11-03T08:26:03;10.10;99.90
7686;DHT22;3885;51.474;-2.576;2022-11-03T08:28:31;10.10;99.90
7686;DHT22;3885;51.474;-2.576;2022-11-03T08:30:58;10.10;99.90
7686;DHT22;3885;51.474;-2.576;2022-11-03T08:33:29;10.20;99.90
7686;DHT22;3885;51.474;-2.576;2022-11-03T08:35:56;10.20;99.90
7686;DHT22;3885;51.474;-2.576;2022-11-03T08:38:23;10.20;99.90
7686;DHT22;3885;51.474;-2.576;2022-11-03T08:40:50;10.20;99.90
7686;DHT22;3885;51.474;-2.576;2022-11-03T08:43:19;10.10;99.90
7686;DHT22;3885;51.474;-2.576;2022-11-03T08:45:46;10.10;99.90
7686;DHT22;3885;51.474;-2.576;2022-11-03T08:48:18;10.10;99.90
7686;DHT22;3885;51.474;-2.576;2022-11-03T08:50:45;10.10;99.90
7686;DHT22;3885;51.474;-2.576;2022-11-03T08:55:39;10.20;99.90
7686;DHT22;3885;51.474;-2.576;2022-11-03T08:58:06;10.40;99.90
7686;DHT22;3885;51.474;-2.576;2022-11-03T09:00:34;10.40;99.90
7686;DHT22;3885;51.474;-2.576;2022-11-03T09:03:01;10.40;99.90
7686;DHT22;3885;51.474;-2.576;2022-11-03T09:05:28;10.40;99.90
7686;DHT22;3885;51.474;-2.576;2022-11-03T09:07:55;10.40;99.90
7686;DHT22;3885;51.474;-2.576;2022-11-03T09:10:22;10.40;99.90
7686;DHT22;3885;51.474;-2.576;2022-11-03T09:12:49;10.50;99.90
7686;DHT22;3885;51.474;-2.576;2022-11-03T09:15:16;10.50;99.90
7686;DHT22;3885;51.474;-2.576;2022-11-03T09:17:44;10.50;99.90
7686;DHT22;3885;51.474;-2.576;2022-11-03T09:20:12;10.40;99.90
7686;DHT22;3885;51.474;-2.576;2022-11-03T09:22:39;10.50;99.90
7686;DHT22;3885;51.474;-2.576;2022-11-03T09:25:06;10.60;99.90
7686;DHT22;3885;51.474;-2.576;2022-11-03T09:27:33;10.60;99.90
7686;DHT22;3885;51.474;-2.576;2022-11-03T09:30:00;10.60;99.90
7686;DHT22;3885;51.474;-2.576;2022-11-03T09:32:27;10.60;99.90
7686;DHT22;3885;51.474;-2.576;2022-11-03T09:34:55;10.60;99.90
7686;DHT22;3885;51.474;-2.576;2022-11-03T09:37:22;10.70;99.90
7686;DHT22;3885;51.474;-2.576;2022-11-03T09:39:49;10.70;99.90
7686;DHT22;3885;51.474;-2.576;2022-11-03T09:42:16;10.70;99.90
7686;DHT22;3885;51.474;-2.576;2022-11-03T09:44:44;10.70;99.90
7686;DHT22;3885;51.474;-2.576;2022-11-03T09:47:20;10.80;99.90
7686;DHT22;3885;51.474;-2.576;2022-11-03T09:49:48;10.80;99.90
7686;DHT22;3885;51.474;-2.576;2022-11-03T09:52:20;10.80;99.90
7686;DHT22;3885;51.474;-2.576;2022-11-03T09:54:47;10.80;99.90
7686;DHT22;3885;51.474;-2.576;2022-11-03T09:57:15;10.90;99.90
7686;DHT22;3885;51.474;-2.576;2022-11-03T09:59:43;10.90;99.90
7686;DHT22;3885;51.474;-2.576;2022-11-03T10:02:18;11.00;99.90
7686;DHT22;3885;51.474;-2.576;2022-11-03T10:04:46;11.00;99.90
7686;DHT22;3885;51.474;-2.576;2022-11-03T10:07:13;11.00;99.90
7686;DHT22;3885;51.474;-2.576;2022-11-03T10:09:44;11.00;99.90
7686;DHT22;3885;51.474;-2.576;2022-11-03T10:12:12;10.90;99.90
7686;DHT22;3885;51.474;-2.576;2022-11-03T10:14:40;11.00;99.90
7686;DHT22;3885;51.474;-2.576;2022-11-03T10:17:14;11.00;99.90
7686;DHT22;3885;51.474;-2.576;2022-11-03T10:19:41;10.90;99.90
7686;DHT22;3885;51.474;-2.576;2022-11-03T10:22:09;11.10;99.90
7686;DHT22;3885;51.474;-2.576;2022-11-03T10:24:36;11.10;99.90
7686;DHT22;3885;51.474;-2.576;2022-11-03T10:27:19;11.20;99.90
7686;DHT22;3885;51.474;-2.576;2022-11-03T10:30:03;11.30;99.90
7686;DHT22;3885;51.474;-2.576;2022-11-03T10:32:32;11.30;99.90
7686;DHT22;3885;51.474;-2.576;2022-11-03T10:35:00;11.30;99.90
7686;DHT22;3885;51.474;-2.576;2022-11-03T10:37:27;11.40;99.90
7686;DHT22;3885;51.474;-2.576;2022-11-03T10:39:55;11.40;99.90
7686;DHT22;3885;51.474;-2.576;2022-11-03T10:42:26;11.40;99.90
7686;DHT22;3885;51.474;-2.576;2022-11-03T10:45:09;11.30;99.90
7686;DHT22;3885;51.474;-2.576;2022-11-03T10:47:36;11.50;99.90
7686;DHT22;3885;51.474;-2.576;2022-11-03T10:50:20;11.50;99.90
7686;DHT22;3885;51.474;-2.576;2022-11-03T10:52:48;11.30;99.90
7686;DHT22;3885;51.474;-2.576;2022-11-03T10:55:15;11.30;99.90
7686;DHT22;3885;51.474;-2.576;2022-11-03T10:57:44;11.30;99.90
7686;DHT22;3885;51.474;-2.576;2022-11-03T11:00:13;11.30;99.90
7686;DHT22;3885;51.474;-2.576;2022-11-03T11:02:41;11.20;99.90
7686;DHT22;3885;51.474;-2.576;2022-11-03T11:05:13;11.20;99.90
7686;DHT22;3885;51.474;-2.576;2022-11-03T11:07:42;11.20;99.90
7686;DHT22;3885;51.474;-2.576;2022-11-03T11:10:12;11.30;99.90
7686;DHT22;3885;51.474;-2.576;2022-11-03T11:13:03;11.30;99.90
7686;DHT22;3885;51.474;-2.576;2022-11-03T11:15:37;11.30;99.90
7686;DHT22;3885;51.474;-2.576;2022-11-03T11:18:05;11.40;99.90
7686;DHT22;3885;51.474;-2.576;2022-11-03T11:20:37;11.60;99.90
7686;DHT22;3885;51.474;-2.576;2022-11-03T11:23:41;11.80;99.90
7686;DHT22;3885;51.474;-2.576;2022-11-03T11:26:28;11.90;99.90
7686;DHT22;3885;51.474;-2.576;2022-11-03T11:39:06;12.40;99.90
7686;DHT22;3885;51.474;-2.576;2022-11-03T11:42:08;12.50;99.90
7686;DHT22;3885;51.474;-2.576;2022-11-03T11:45:00;12.50;99.90
7686;DHT22;3885;51.474;-2.576;2022-11-03T11:50:28;12.60;99.90
7686;DHT22;3885;51.474;-2.576;2022-11-03T11:53:12;12.60;99.90
7686;DHT22;3885;51.474;-2.576;2022-11-03T11:55:59;12.80;99.90
7686;DHT22;3885;51.474;-2.576;2022-11-03T11:58:33;12.90;99.90
7686;DHT22;3885;51.474;-2.576;2022-11-03T12:01:05;13.00;99.90
7686;DHT22;3885;51.474;-2.576;2022-11-03T12:03:44;13.10;99.90
7686;DHT22;3885;51.474;-2.576;2022-11-03T12:06:12;13.10;99.90
7686;DHT22;3885;51.474;-2.576;2022-11-03T12:08:39;13.20;99.90
7686;DHT22;3885;51.474;-2.576;2022-11-03T12:11:10;12.80;99.90
7686;DHT22;3885;51.474;-2.576;2022-11-03T12:13:46;12.80;99.90
7686;DHT22;3885;51.474;-2.576;2022-11-03T12:16:32;12.70;99.90
7686;DHT22;3885;51.474;-2.576;2022-11-03T12:21:59;12.70;99.90
7686;DHT22;3885;51.474;-2.576;2022-11-03T12:24:37;12.70;99.90
7686;DHT22;3885;51.474;-2.576;2022-11-03T12:30:04;12.70;99.90
7686;DHT22;3885;51.474;-2.576;2022-11-03T12:32:33;12.60;99.90
7686;DHT22;3885;51.474;-2.576;2022-11-03T12:35:00;12.60;99.90
7686;DHT22;3885;51.474;-2.576;2022-11-03T12:37:27;12.50;99.90
7686;DHT22;3885;51.474;-2.576;2022-11-03T12:39:54;12.30;99.90
7686;DHT22;3885;51.474;-2.576;2022-11-03T12:42:22;12.10;99.90
7686;DHT22;3885;51.474;-2.576;2022-11-03T12:44:50;12.00;99.90
7686;DHT22;3885;51.474;-2.576;2022-11-03T12:47:17;11.90;99.90
7686;DHT22;3885;51.474;-2.576;2022-11-03T12:49:45;11.90;99.90
7686;DHT22;3885;51.474;-2.576;2022-11-03T12:52:12;11.90;99.90
7686;DHT22;3885;51.474;-2.576;2022-11-03T12:54:39;11.90;99.90
7686;DHT22;3885;51.474;-2.576;2022-11-03T12:57:06;11.90;99.90
7686;DHT22;3885;51.474;-2.576;2022-11-03T12:59:35;12.00;99.90
7686;DHT22;3885;51.474;-2.576;2022-11-03T13:02:02;12.00;99.90
7686;DHT22;3885;51.474;-2.576;2022-11-03T13:04:29;12.00;99.90
7686;DHT22;3885;51.474;-2.576;2022-11-03T13:06:55;12.10;99.90
7686;DHT22;3885;51.474;-2.576;2022-11-03T13:09:22;12.10;99.90
7686;DHT22;3885;51.474;-2.576;2022-11-03T13:11:49;12.10;99.90
7686;DHT22;3885;51.474;-2.576;2022-11-03T13:14:35;12.10;99.90
7686;DHT22;3885;51.474;-2.576;2022-11-03T13:17:02;12.20;99.90
7686;DHT22;3885;51.474;-2.576;2022-11-03T13:19:29;12.20;99.90
7686;DHT22;3885;51.474;-2.576;2022-11-03T13:21:56;12.10;99.90
7686;DHT22;3885;51.474;-2.576;2022-11-03T13:24:23;12.10;99.90
7686;DHT22;3885;51.474;-2.576;2022-11-03T13:26:49;12.00;99.90
7686;DHT22;3885;51.474;-2.576;2022-11-03T13:29:16;12.00;99.90
7686;DHT22;3885;51.474;-2.576;2022-11-03T13:31:45;12.00;99.90
7686;DHT22;3885;51.474;-2.576;2022-11-03T13:34:11;11.90;99.90
7686;DHT22;3885;51.474;-2.576;2022-11-03T13:36:38;11.90;99.90
7686;DHT22;3885;51.474;-2.576;2022-11-03T13:39:05;11.70;99.90
7686;DHT22;3885;51.474;-2.576;2022-11-03T13:41:32;11.70;99.90
7686;DHT22;3885;51.474;-2.576;2022-11-03T13:43:59;11.60;99.90
7686;DHT22;3885;51.474;-2.576;2022-11-03T13:46:26;11.60;99.90
7686;DHT22;3885;51.474;-2.576;2022-11-03T13:48:54;11.60;99.90
7686;DHT22;3885;51.474;-2.576;2022-11-03T13:51:21;11.60;99.90
7686;DHT22;3885;51.474;-2.576;2022-11-03T13:53:48;11.50;99.90
7686;DHT22;3885;51.474;-2.576;2022-11-03T13:56:15;11.50;99.90
7686;DHT22;3885;51.474;-2.576;2022-11-03T13:58:42;11.60;99.90
7686;DHT22;3885;51.474;-2.576;2022-11-03T14:01:09;11.60;99.90
7686;DHT22;3885;51.474;-2.576;2022-11-03T14:03:35;11.70;99.90
7686;DHT22;3885;51.474;-2.576;2022-11-03T14:06:04;11.80;99.90
7686;DHT22;3885;51.474;-2.576;2022-11-03T14:08:31;11.90;99.90
7686;DHT22;3885;51.474;-2.576;2022-11-03T14:10:58;12.00;99.90
7686;DHT22;3885;51.474;-2.576;2022-11-03T14:13:46;12.10;99.90
7686;DHT22;3885;51.474;-2.576;2022-11-03T14:16:11;12.00;99.90
7686;DHT22;3885;51.474;-2.576;2022-11-03T14:18:38;12.00;99.90
7686;DHT22;3885;51.474;-2.576;2022-11-03T14:21:07;12.00;99.90
7686;DHT22;3885;51.474;-2.576;2022-11-03T14:23:34;11.80;99.90
7686;DHT22;3885;51.474;-2.576;2022-11-03T14:26:00;11.80;99.90
7686;DHT22;3885;51.474;-2.576;2022-11-03T14:28:27;11.70;99.90
7686;DHT22;3885;51.474;-2.576;2022-11-03T14:30:54;11.70;99.90
7686;DHT22;3885;51.474;-2.576;2022-11-03T14:33:24;11.50;99.90
7686;DHT22;3885;51.474;-2.576;2022-11-03T14:35:51;11.50;99.90
7686;DHT22;3885;51.474;-2.576;2022-11-03T14:38:19;11.50;99.90
7686;DHT22;3885;51.474;-2.576;2022-11-03T14:43:31;11.50;99.90
7686;DHT22;3885;51.474;-2.576;2022-11-03T14:45:58;11.30;99.90
7686;DHT22;3885;51.474;-2.576;2022-11-03T14:48:25;11.30;99.90
7686;DHT22;3885;51.474;-2.576;2022-11-03T14:50:52;11.30;99.90
7686;DHT22;3885;51.474;-2.576;2022-11-03T14:53:21;11.30;99.90
7686;DHT22;3885;51.474;-2.576;2022-11-03T14:55:48;11.30;99.90
7686;DHT22;3885;51.474;-2.576;2022-11-03T14:58:15;11.30;99.90
7686;DHT22;3885;51.474;-2.576;2022-11-03T15:00:43;11.50;99.90
7686;DHT22;3885;51.474;-2.576;2022-11-03T15:03:10;11.60;99.90
7686;DHT22;3885;51.474;-2.576;2022-11-03T15:05:37;11.60;99.90
7686;DHT22;3885;51.474;-2.576;2022-11-03T15:08:10;11.60;99.90
7686;DHT22;3885;51.474;-2.576;2022-11-03T15:10:39;11.70;99.90
7686;DHT22;3885;51.474;-2.576;2022-11-03T15:13:06;11.70;99.90
7686;DHT22;3885;51.474;-2.576;2022-11-03T15:15:33;11.80;99.90
7686;DHT22;3885;51.474;-2.576;2022-11-03T15:18:01;13.10;99.90
7686;DHT22;3885;51.474;-2.576;2022-11-03T15:20:28;11.80;99.90
7686;DHT22;3885;51.474;-2.576;2022-11-03T15:22:55;11.90;99.90
7686;DHT22;3885;51.474;-2.576;2022-11-03T15:25:22;11.90;99.90
7686;DHT22;3885;51.474;-2.576;2022-11-03T15:27:50;11.80;99.90
7686;DHT22;3885;51.474;-2.576;2022-11-03T15:30:17;11.80;99.90
7686;DHT22;3885;51.474;-2.576;2022-11-03T15:32:44;11.70;99.90
7686;DHT22;3885;51.474;-2.576;2022-11-03T15:35:11;11.60;99.90
7686;DHT22;3885;51.474;-2.576;2022-11-03T15:37:38;11.60;99.90
7686;DHT22;3885;51.474;-2.576;2022-11-03T15:40:08;11.50;99.90
7686;DHT22;3885;51.474;-2.576;2022-11-03T15:42:36;11.40;99.90
7686;DHT22;3885;51.474;-2.576;2022-11-03T15:45:05;11.50;99.90
7686;DHT22;3885;51.474;-2.576;2022-11-03T15:47:32;11.50;99.90
7686;DHT22;3885;51.474;-2.576;2022-11-03T15:49:59;11.40;99.90
7686;DHT22;3885;51.474;-2.576;2022-11-03T15:52:26;11.20;99.90
7686;DHT22;3885;51.474;-2.576;2022-11-03T15:57:20;10.90;99.90
7686;DHT22;3885;51.474;-2.576;2022-11-03T15:59:47;10.70;99.90
7686;DHT22;3885;51.474;-2.576;2022-11-03T16:02:16;10.50;99.90
7686;DHT22;3885;51.474;-2.576;2022-11-03T16:04:43;10.30;99.90
7686;DHT22;3885;51.474;-2.576;2022-11-03T16:07:09;10.30;99.90
7686;DHT22;3885;51.474;-2.576;2022-11-03T16:09:36;10.10;99.90
7686;DHT22;3885;51.474;-2.576;2022-11-03T16:12:03;10.20;99.90
7686;DHT22;3885;51.474;-2.576;2022-11-03T16:14:30;10.20;99.90
7686;DHT22;3885;51.474;-2.576;2022-11-03T16:16:57;10.10;99.90
7686;DHT22;3885;51.474;-2.576;2022-11-03T16:19:26;10.10;99.90
7686;DHT22;3885;51.474;-2.576;2022-11-03T16:21:52;10.00;99.90
7686;DHT22;3885;51.474;-2.576;2022-11-03T16:24:20;10.00;99.90
7686;DHT22;3885;51.474;-2.576;2022-11-03T16:26:47;10.00;99.90
7686;DHT22;3885;51.474;-2.576;2022-11-03T16:29:15;10.00;99.90
7686;DHT22;3885;51.474;-2.576;2022-11-03T16:31:42;10.00;99.90